createdAt,value
2023-01-08T00:00:18.328Z,101403.90
2023-01-08T00:01:22.395Z,101408.25
2023-01-08T00:02:27.919Z,101408.25
2023-01-08T00:03:31.992Z,101400.42
2023-01-08T00:06:05.164Z,101395.22
2023-01-08T00:07:14.166Z,101398.70
2023-01-08T00:08:17.570Z,101398.70
2023-01-08T00:09:22.917Z,101395.23
2023-01-08T00:10:28.556Z,101399.58
2023-01-08T00:11:34.897Z,101407.38
2023-01-08T00:12:38.884Z,101407.38
2023-01-08T00:13:45.149Z,101402.16
2023-01-08T00:14:48.879Z,101405.63
2023-01-08T00:15:55.407Z,101396.98
2023-01-08T00:16:59.616Z,101402.16
2023-01-08T00:18:06.652Z,101395.22
2023-01-08T00:19:11.339Z,101395.22
2023-01-08T00:20:16.121Z,101400.42
2023-01-08T00:21:22.339Z,101403.89
2023-01-08T00:22:26.009Z,101401.31
2023-01-08T00:23:33.252Z,101403.90
2023-01-08T00:24:38.738Z,101417.80
2023-01-08T00:25:42.753Z,101411.70
2023-01-08T00:26:51.164Z,101415.16
2023-01-08T00:27:56.758Z,101421.25
2023-01-08T00:29:00.693Z,101416.89
2023-01-08T00:30:06.449Z,101414.32
2023-01-08T00:31:14.844Z,101416.05
2023-01-08T00:32:26.332Z,101414.29
2023-01-08T00:34:18.388Z,101437.73
2023-01-08T00:35:10.056Z,101410.84
2023-01-08T00:35:46.537Z,101415.19
2023-01-08T00:36:52.207Z,101419.49
2023-01-08T00:37:57.387Z,101419.50
2023-01-08T00:39:04.683Z,101419.49
2023-01-08T00:40:09.562Z,101421.25
2023-01-08T00:41:18.626Z,101421.25
2023-01-08T00:42:21.580Z,101396.06
2023-01-08T00:43:31.429Z,101419.49
2023-01-08T00:44:35.349Z,101427.31
2023-01-08T00:45:39.402Z,101433.38
2023-01-08T00:46:43.431Z,101434.27
2023-01-08T00:47:47.546Z,101436.02
2023-01-08T00:48:51.568Z,101426.48
2023-01-08T00:49:55.700Z,101426.48
2023-01-08T01:33:04.937Z,101404.75
2023-01-08T01:50:19.801Z,101389.95
2023-01-08T01:51:26.662Z,101391.69
2023-01-08T01:52:36.122Z,100940.88
2023-01-08T01:53:40.166Z,101377.87
2023-01-08T01:54:44.229Z,101376.11
2023-01-08T01:55:50.369Z,101377.00
2023-01-08T01:56:54.526Z,101370.92
2023-01-08T01:58:16.081Z,101382.20
2023-01-08T01:59:19.122Z,101378.74
2023-01-08T02:00:25.848Z,101383.93
2023-01-08T02:01:37.610Z,101386.55
2023-01-08T02:03:48.042Z,101374.41
2023-01-08T02:03:52.036Z,101374.41
2023-01-08T02:04:56.074Z,101383.08
2023-01-08T02:06:09.199Z,101376.13
2023-01-08T02:07:18.911Z,101376.14
2023-01-08T02:08:28.464Z,101378.74
2023-01-08T02:09:55.871Z,101375.28
2023-01-08T02:11:08.277Z,101376.13
2023-01-08T02:12:23.648Z,101376.14
2023-01-08T02:13:30.832Z,101376.14
2023-01-08T02:14:39.836Z,101381.34
2023-01-08T02:15:58.614Z,101381.34
2023-01-08T02:17:05.621Z,101384.81
2023-01-08T02:18:12.641Z,101394.34
2023-01-08T02:19:46.918Z,101390.02
2023-01-08T02:20:59.706Z,101396.97
2023-01-08T02:22:31.851Z,101396.97
2023-01-08T02:23:50.467Z,101396.96
2023-01-08T02:25:21.067Z,101396.97
2023-01-08T02:26:33.979Z,101400.44
2023-01-08T02:27:41.128Z,101400.44
2023-01-08T02:29:19.580Z,101400.44
2023-01-08T02:30:26.212Z,101399.56
2023-01-08T02:31:32.243Z,101403.91
2023-01-08T02:32:41.714Z,101400.42
2023-01-08T02:33:47.307Z,101412.58
2023-01-08T02:34:52.753Z,101403.89
2023-01-08T02:36:17.556Z,101399.56
2023-01-08T02:37:22.025Z,101409.98
2023-01-08T02:38:29.016Z,101408.23
2023-01-08T02:39:41.496Z,101410.83
2023-01-08T02:40:57.126Z,101405.66
2023-01-08T02:42:05.636Z,101405.66
2023-01-08T02:43:21.307Z,101396.09
2023-01-08T02:44:34.210Z,101406.50
2023-01-08T02:45:42.453Z,101406.50
2023-01-08T02:46:48.492Z,101408.24
2023-01-08T02:48:10.047Z,101395.21
2023-01-08T02:49:17.148Z,101403.90
2023-01-08T02:50:32.107Z,101400.42
2023-01-08T02:51:49.600Z,101399.56
2023-01-08T03:05:29.368Z,101394.36
2023-01-08T03:06:45.710Z,101226.95
2023-01-08T03:08:20.924Z,101226.95
2023-01-08T03:08:54.965Z,101384.81
2023-01-08T03:10:02.044Z,101380.47
2023-01-08T03:11:12.048Z,101390.88
2023-01-08T03:12:25.657Z,101390.02
2023-01-08T03:13:51.691Z,101395.21
2023-01-08T03:15:00.361Z,101381.35
2023-01-08T03:16:07.419Z,101391.77
2023-01-08T03:17:20.642Z,101395.23
2023-01-08T03:18:29.666Z,101385.67
2023-01-08T03:19:42.689Z,101385.66
2023-01-08T03:21:40.976Z,101385.66
2023-01-08T03:36:49.301Z,101395.22
2023-01-08T03:37:59.108Z,101398.70
2023-01-08T03:39:14.673Z,101400.43
2023-01-08T03:40:30.459Z,101390.89
2023-01-08T03:41:36.576Z,101397.84
2023-01-08T03:42:42.054Z,101397.84
2023-01-08T03:43:46.279Z,101390.89
2023-01-08T03:44:50.258Z,101400.45
2023-01-08T03:45:57.259Z,101389.14
2023-01-08T03:47:04.320Z,101390.88
2023-01-08T04:02:17.380Z,101392.62
2023-01-08T04:05:36.262Z,101382.22
2023-01-08T04:06:21.673Z,101385.69
2023-01-08T05:26:58.562Z,101428.20
2023-01-08T05:29:40.393Z,101429.06
2023-01-08T05:30:53.861Z,101429.08
2023-01-08T05:32:51.738Z,101429.08
2023-01-08T05:33:11.554Z,101424.72
2023-01-08T05:34:17.151Z,101423.85
2023-01-08T05:52:52.107Z,101423.87
2023-01-08T05:53:56.202Z,101427.35
2023-01-08T05:55:00.279Z,101434.28
2023-01-08T05:56:09.575Z,101429.08
2023-01-08T05:57:16.604Z,101434.28
2023-01-08T05:58:20.601Z,101433.42
2023-01-08T05:59:26.157Z,101443.82
2023-01-08T06:00:34.075Z,101438.61
2023-01-08T06:01:38.170Z,101435.16
2023-01-08T06:02:44.773Z,101439.48
2023-01-08T06:03:48.882Z,101439.49
2023-01-08T06:04:56.377Z,101447.25
2023-01-08T06:06:05.758Z,101452.47
2023-01-08T06:07:14.387Z,101445.56
2023-01-08T06:08:18.687Z,101451.59
2023-01-08T06:11:38.471Z,101453.33
2023-01-08T06:14:49.813Z,101460.30
2023-01-08T06:30:09.074Z,101455.11
2023-01-08T06:31:11.572Z,101456.83
2023-01-08T06:32:20.066Z,101450.73
2023-01-08T06:33:23.729Z,101458.56
2023-01-08T06:34:27.762Z,101462.01
2023-01-08T06:35:35.404Z,101458.56
2023-01-08T06:36:43.681Z,101449.86
2023-01-08T06:37:48.709Z,101440.31
2023-01-08T06:38:52.740Z,101455.08
2023-01-08T06:39:56.659Z,101448.10
2023-01-08T06:41:09.002Z,101464.61
2023-01-08T06:42:19.102Z,101456.82
2023-01-08T06:43:25.866Z,101456.80
2023-01-08T06:44:30.680Z,101451.60
2023-01-08T06:45:39.225Z,101455.94
2023-01-08T06:46:45.324Z,101450.72
2023-01-08T06:47:52.629Z,101444.63
2023-01-08T06:48:59.541Z,101451.56
2023-01-08T06:50:06.803Z,101448.97
2023-01-08T06:51:12.018Z,101444.63
2023-01-08T06:52:16.111Z,101449.81
2023-01-08T06:53:23.965Z,101447.22
2023-01-08T06:54:27.955Z,101447.22
2023-01-08T06:55:33.649Z,101448.08
2023-01-08T06:56:52.628Z,101448.08
2023-01-08T06:57:45.123Z,101445.48
2023-01-08T06:58:50.812Z,101450.67
2023-01-08T06:59:56.513Z,101454.13
2023-01-08T07:01:02.236Z,101455.01
2023-01-08T07:02:32.836Z,101456.75
2023-01-08T07:03:24.618Z,101456.75
2023-01-08T07:04:25.552Z,101459.34
2023-01-08T07:05:33.390Z,101458.46
2023-01-08T07:07:57.767Z,101488.91
2023-01-08T07:08:19.466Z,101463.66
2023-01-08T08:42:24.255Z,100891.09
2023-01-08T08:43:28.298Z,101455.67
2023-01-08T08:44:32.361Z,101466.09
2023-01-08T08:45:37.478Z,101460.85
2023-01-08T08:46:41.540Z,101460.85
2023-01-08T08:47:45.581Z,101464.24
2023-01-08T08:48:49.575Z,101406.11
2023-01-08T08:49:53.737Z,101458.98
2023-01-08T08:50:57.799Z,101453.72
2023-01-08T08:52:01.947Z,101457.20
2023-01-08T08:53:07.032Z,101458.92
2023-01-08T08:54:12.206Z,101453.70
2023-01-08T08:55:16.752Z,101446.70
2023-01-08T08:56:21.006Z,101451.91
2023-01-08T08:57:27.378Z,101442.30
2023-01-08T08:58:31.557Z,101449.30
2023-01-08T08:59:37.751Z,101436.18
2023-01-08T09:00:44.146Z,101448.38
2023-01-08T09:01:48.571Z,101441.38
2023-01-08T09:02:52.886Z,101441.38
2023-01-08T09:03:57.583Z,101443.10
2023-01-08T09:05:01.701Z,101437.02
2023-01-08T09:06:06.126Z,101436.13
2023-01-08T09:07:10.296Z,101436.99
2023-01-08T09:08:14.391Z,101440.49
2023-01-08T09:09:18.566Z,101442.16
2023-01-08T12:15:26.537Z,101328.02
2023-01-08T12:17:10.086Z,101325.31
2023-01-08T12:18:34.819Z,101331.34
2023-01-08T12:21:16.245Z,101319.77
2023-01-08T12:22:34.577Z,101319.02
2023-01-08T12:23:56.299Z,101325.06
2023-01-08T12:25:08.574Z,101336.44
2023-01-08T12:26:21.891Z,101336.44
2023-01-08T12:27:57.763Z,101335.58
2023-01-08T12:29:13.231Z,101335.53
2023-01-08T12:30:35.322Z,101323.34
2023-01-08T12:32:06.492Z,101327.68
2023-01-08T12:33:34.342Z,101327.73
2023-01-08T12:34:53.350Z,101334.72
2023-01-08T12:36:00.436Z,101338.24
2023-01-08T12:37:07.554Z,101333.88
2023-01-08T12:38:32.652Z,101323.41
2023-01-08T12:39:39.633Z,101329.54
2023-01-08T12:40:58.624Z,101326.06
2023-01-08T12:42:08.373Z,101325.21
2023-01-08T12:43:21.010Z,101326.11
2023-01-08T12:44:28.188Z,101322.60
2023-01-08T12:45:35.414Z,101328.73
2023-01-08T12:46:42.468Z,101325.27
2023-01-08T12:47:52.340Z,101325.27
2023-01-08T12:48:58.178Z,101334.92
2023-01-08T12:50:16.993Z,101325.36
2023-01-08T12:51:48.178Z,101325.35
2023-01-08T12:53:04.550Z,101324.50
2023-01-08T12:54:41.977Z,101319.27
2023-01-08T12:55:51.679Z,101315.78
2023-01-08T12:57:01.607Z,101313.17
2023-01-08T12:58:11.698Z,101314.03
2023-01-08T12:59:35.401Z,101314.98
2023-01-08T13:01:16.985Z,101301.95
2023-01-08T13:02:51.480Z,101299.33
2023-01-08T13:03:57.963Z,101300.23
2023-01-08T13:05:20.137Z,101297.63
2023-01-08T13:06:25.968Z,101296.73
2023-01-08T13:07:35.562Z,101296.73
2023-01-08T13:08:45.150Z,101299.39
2023-01-08T13:09:56.982Z,101297.63
2023-01-08T13:11:02.110Z,101295.86
2023-01-08T13:12:06.403Z,101308.05
2023-01-08T13:13:31.782Z,101301.09
2023-01-08T13:14:47.188Z,101301.09
2023-01-08T13:15:51.375Z,101303.76
2023-01-08T13:17:04.737Z,101303.76
2023-01-08T13:18:21.132Z,101295.91
2023-01-08T13:19:37.077Z,101302.04
2023-01-08T13:20:41.316Z,101295.91
2023-01-08T13:21:48.399Z,101297.63
2023-01-08T13:22:55.139Z,101290.67
2023-01-08T13:24:05.106Z,101287.20
2023-01-08T13:25:21.348Z,101286.36
2023-01-08T13:26:31.159Z,101286.36
2023-01-08T13:27:35.351Z,101297.67
2023-01-08T13:28:44.816Z,101300.29
2023-01-08T13:29:51.413Z,101297.75
2023-01-08T13:33:25.761Z,101296.00
2023-01-08T13:34:41.190Z,101297.75
2023-01-08T13:35:45.243Z,101292.44
2023-01-08T13:36:58.890Z,101290.77
2023-01-08T13:39:40.384Z,101297.79
2023-01-08T13:40:50.144Z,101297.79
2023-01-08T13:42:14.150Z,101294.28
2023-01-08T13:43:38.885Z,101306.50
2023-01-08T13:44:51.580Z,101302.20
2023-01-08T13:46:01.485Z,101304.86
2023-01-08T13:47:29.738Z,101306.62
2023-01-08T13:48:39.575Z,101311.89
2023-01-08T13:49:46.945Z,101299.69
2023-01-08T13:50:51.988Z,101304.09
2023-01-08T13:51:56.448Z,101303.23
2023-01-08T13:53:08.468Z,101299.77
2023-01-08T13:54:21.109Z,101305.00
2023-01-08T13:55:31.443Z,101301.53
2023-01-08T13:56:35.717Z,101306.75
2023-01-08T13:57:42.776Z,101299.81
2023-01-08T13:58:49.784Z,101305.08
2023-01-08T13:59:59.320Z,101307.70
2023-01-08T14:01:05.660Z,101300.75
2023-01-08T14:02:27.955Z,101292.95
2023-01-08T14:03:37.659Z,101292.95
2023-01-08T18:03:11.130Z,101265.05
2023-01-08T18:04:16.315Z,101264.16
2023-01-08T18:05:29.238Z,101261.52
2023-01-08T18:06:33.394Z,101259.80
2023-01-08T18:07:37.714Z,101255.45
2023-01-08T18:08:41.855Z,101261.50
2023-01-08T18:09:50.696Z,101259.78
2023-01-08T18:10:55.645Z,101260.63
2023-01-08T18:12:02.949Z,101261.48
2023-01-08T18:13:06.025Z,101264.07
2023-01-08T18:14:14.642Z,101265.86
2023-01-08T18:15:18.944Z,101269.28
2023-01-08T18:16:24.838Z,101270.14
2023-01-08T18:17:31.153Z,101263.19
2023-01-08T18:18:42.243Z,101263.19
2023-01-08T18:19:46.497Z,101263.20
2023-01-08T18:20:54.172Z,101266.67
2023-01-08T18:21:59.935Z,101275.34
2023-01-08T18:23:07.946Z,101266.66
2023-01-08T18:24:12.184Z,101266.66
2023-01-08T18:25:16.521Z,101268.39
2023-01-08T18:26:22.558Z,101266.70
2023-01-08T18:27:26.772Z,101267.58
2023-01-08T18:28:30.956Z,101265.85
2023-01-08T18:29:38.473Z,101266.72
2023-01-08T18:30:42.837Z,101268.45
2023-01-08T18:31:52.012Z,101262.38
2023-01-08T18:32:54.525Z,101262.38
2023-01-08T18:34:02.325Z,101269.34
2023-01-08T18:35:12.681Z,101262.41
2023-01-08T18:36:17.776Z,101262.41
2023-01-08T18:37:23.663Z,101266.73
2023-01-08T18:38:29.491Z,101259.81
2023-01-08T18:39:36.719Z,101258.08
2023-01-08T18:40:54.302Z,101253.72
2023-01-08T18:42:04.535Z,101263.30
2023-01-08T18:43:10.904Z,101263.28
2023-01-08T18:44:14.921Z,101263.28
2023-01-08T18:45:20.798Z,101260.70
2023-01-08T18:46:32.687Z,101251.14
2023-01-08T18:47:55.140Z,101255.48
2023-01-08T18:49:01.322Z,101256.37
2023-01-08T18:50:06.207Z,101248.56
2023-01-08T18:51:31.650Z,101248.56
2023-01-08T18:52:38.953Z,101252.03
2023-01-08T18:53:46.828Z,101252.91
2023-01-08T18:54:52.555Z,101252.05
2023-01-08T18:56:03.728Z,101250.28
2023-01-08T18:57:08.500Z,101249.42
2023-01-08T18:58:14.134Z,101240.73
2023-01-08T18:59:20.500Z,101250.30
2023-01-08T19:00:26.396Z,101250.30
2023-01-08T19:01:31.168Z,101247.70
2023-01-08T19:02:38.385Z,101239.89
2023-01-08T19:03:45.768Z,101239.01
2023-01-08T19:04:53.654Z,101249.43
2023-01-08T19:05:59.577Z,101239.86
2023-01-08T19:07:06.612Z,101239.01
2023-01-08T19:08:12.458Z,101252.89
2023-01-08T19:09:18.551Z,101245.08
2023-01-08T19:10:22.691Z,101236.41
2023-01-08T19:11:30.091Z,101240.73
2023-01-08T19:12:37.388Z,101251.16
2023-01-08T19:13:42.079Z,101238.14
2023-01-08T19:14:47.168Z,101234.66
2023-01-08T19:15:51.340Z,101239.88
2023-01-08T19:16:55.531Z,101239.88
2023-01-08T19:17:59.673Z,101238.13
2023-01-08T19:19:04.893Z,101241.59
2023-01-08T19:20:11.922Z,101235.52
2023-01-08T19:21:16.584Z,101244.19
2023-01-08T19:22:21.057Z,101247.67
2023-01-08T19:23:35.755Z,101243.33
2023-01-08T19:24:40.246Z,101242.47
2023-01-08T19:25:44.451Z,101242.47
2023-01-08T19:26:48.639Z,101248.54
2023-01-08T19:27:52.995Z,101247.66
2023-01-08T19:28:57.241Z,101247.66
2023-01-08T19:30:01.386Z,101247.69
2023-01-08T19:31:05.655Z,101247.69
2023-01-08T19:32:11.554Z,101250.27
2023-01-08T19:33:15.735Z,101247.66
2023-01-08T19:34:19.892Z,101245.92
2023-01-08T19:35:25.533Z,101236.36
2023-01-08T19:36:29.936Z,101243.32
2023-01-08T19:37:35.616Z,101239.86
2023-01-08T19:38:42.317Z,101232.03
2023-01-08T19:39:46.692Z,101236.37
2023-01-08T19:40:51.115Z,101238.98
2023-01-08T19:41:55.440Z,101233.77
2023-01-08T19:43:02.379Z,101239.84
2023-01-08T19:44:07.190Z,101237.21
2023-01-08T19:45:13.507Z,101231.16
2023-01-08T19:46:17.821Z,101234.62
2023-01-08T19:47:21.856Z,101230.27
2023-01-08T19:48:25.854Z,101227.69
2023-01-08T19:49:29.912Z,101231.13
2023-01-08T19:50:34.013Z,101237.23
2023-01-08T19:51:38.085Z,101232.02
2023-01-08T19:52:42.257Z,101233.74
2023-01-08T19:53:46.316Z,101232.86
2023-01-08T19:54:51.949Z,101233.73
2023-01-08T19:55:55.972Z,101223.25
2023-01-08T19:57:00.058Z,101236.29
2023-01-08T19:58:04.913Z,101236.29
2023-01-08T19:59:09.865Z,101231.92
2023-01-08T20:00:17.965Z,101235.39
2023-01-08T20:01:24.928Z,101224.09
2023-01-08T20:02:42.696Z,101224.09
2023-01-08T20:03:45.617Z,101223.21
2023-01-08T20:04:51.312Z,101229.28
2023-01-08T20:05:55.363Z,101231.02
2023-01-08T20:06:59.807Z,101231.02
2023-01-08T20:08:03.967Z,101231.87
2023-01-08T20:09:08.067Z,101231.87
2023-01-08T20:10:13.654Z,101182.55
2023-01-08T20:11:18.459Z,101226.65
2023-01-08T20:12:22.752Z,101230.98
2023-01-08T20:13:31.247Z,101225.74
2023-01-08T20:14:35.410Z,101229.20
2023-01-08T20:15:39.410Z,101224.89
2023-01-08T20:16:43.567Z,101230.08
2023-01-08T20:17:47.656Z,101229.20
2023-01-08T20:18:53.192Z,101224.82
2023-01-08T20:19:57.160Z,101229.17
2023-01-08T20:21:09.750Z,101221.36
2023-01-08T20:22:13.915Z,101225.69
2023-01-08T20:23:18.194Z,101223.09
2023-01-08T20:24:22.388Z,101218.73
2023-01-08T20:25:26.648Z,101210.05
2023-01-08T20:26:32.114Z,101210.05
2023-01-08T20:27:37.013Z,101223.94
2023-01-08T20:28:43.607Z,101224.83
2023-01-08T20:29:48.066Z,101224.81
2023-01-08T20:30:52.489Z,101214.36
2023-01-08T20:31:56.844Z,101221.32
2023-01-08T20:33:01.192Z,101217.83
2023-01-08T20:34:08.066Z,101217.83
2023-01-08T20:35:12.292Z,101215.20
2023-01-08T20:36:20.438Z,101220.44
2023-01-08T20:37:24.732Z,101203.05
2023-01-08T20:38:29.005Z,101198.70
2023-01-08T20:39:33.491Z,101205.66
2023-01-08T20:40:38.425Z,101209.13
2023-01-08T20:41:50.012Z,101209.13
2023-01-08T20:42:49.153Z,101214.31
2023-01-08T20:45:03.327Z,101209.11
2023-01-08T20:46:08.795Z,101206.47
2023-01-08T20:47:12.869Z,101207.34
2023-01-08T20:48:17.076Z,101207.36
2023-01-08T20:49:21.161Z,101208.19
2023-01-08T20:50:25.341Z,101202.13
2023-01-08T20:51:30.258Z,101201.23
2023-01-08T20:52:34.390Z,101201.23
2023-01-08T20:53:39.156Z,101214.27
2023-01-08T20:54:43.118Z,101208.17
2023-01-08T20:55:47.158Z,101209.03
2023-01-08T20:56:51.407Z,101211.61
2023-01-08T20:57:55.387Z,101211.61
2023-01-08T20:59:00.912Z,101211.62
2023-01-08T21:00:05.378Z,101213.31
2023-01-08T21:01:15.855Z,101217.66
2023-01-08T21:02:20.076Z,101212.45
2023-01-08T21:03:24.077Z,101208.95
2023-01-08T21:04:28.263Z,101208.96
2023-01-08T21:05:33.877Z,101216.81
2023-01-08T21:06:38.272Z,101223.72
2023-01-08T21:07:42.273Z,101206.32
2023-01-08T21:08:48.416Z,101207.19
2023-01-08T21:09:52.692Z,101214.13
2023-01-08T21:11:05.573Z,101214.98
2023-01-08T21:12:09.606Z,101214.06
2023-01-08T21:13:14.943Z,101207.99
2023-01-08T21:14:19.048Z,101211.45
2023-01-08T21:15:23.242Z,101214.98
2023-01-08T21:16:29.174Z,100997.17
2023-01-08T21:17:33.512Z,101215.79
2023-01-08T21:18:37.733Z,101215.78
2023-01-08T21:19:41.807Z,101207.93
2023-01-08T21:20:46.013Z,101204.47
2023-01-08T21:21:50.185Z,101209.66
2023-01-08T21:22:54.225Z,101201.83
2023-01-08T21:23:58.749Z,101199.25
2023-01-08T21:25:02.900Z,101196.61
2023-01-08T21:26:09.524Z,101191.39
2023-01-08T21:27:13.533Z,101190.50
2023-01-08T21:28:17.557Z,101193.14
2023-01-08T21:29:21.664Z,101189.64
2023-01-08T21:30:25.613Z,101189.61
2023-01-08T21:31:31.972Z,101189.61
2023-01-08T21:32:36.589Z,101192.25
2023-01-08T21:33:41.289Z,101193.97
2023-01-08T21:34:48.367Z,101193.14
2023-01-08T21:35:52.518Z,101193.14
2023-01-08T21:36:56.963Z,101188.78
2023-01-08T21:38:01.054Z,101182.68
2023-01-08T21:39:05.315Z,101183.53
2023-01-08T21:40:14.229Z,101187.89
2023-01-08T21:41:23.825Z,101183.53
2023-01-08T21:42:27.919Z,101184.39
2023-01-08T21:43:35.903Z,101190.50
2023-01-08T21:44:41.602Z,101197.44
2023-01-08T21:45:51.367Z,101191.36
2023-01-08T21:46:53.288Z,101185.28
2023-01-08T21:48:01.550Z,101184.39
2023-01-08T21:49:05.663Z,101182.70
2023-01-08T21:50:12.811Z,101182.70
2023-01-08T21:51:19.034Z,101173.99
2023-01-08T21:52:24.870Z,101173.09
2023-01-08T21:53:28.895Z,101168.80
2023-01-08T21:54:33.093Z,101170.52
2023-01-08T21:55:39.346Z,101163.55
2023-01-08T21:56:43.483Z,101163.55
2023-01-08T21:57:48.020Z,101166.20
2023-01-08T21:58:52.360Z,101171.38
2023-01-08T21:59:57.193Z,101173.99
2023-01-08T22:01:01.466Z,101173.99
2023-01-08T22:02:06.543Z,101179.20
2023-01-08T22:03:10.628Z,101173.09
2023-01-08T22:04:17.857Z,101180.07
2023-01-08T22:05:23.818Z,101172.27
2023-01-08T22:06:28.016Z,101172.27
2023-01-08T22:07:32.690Z,101170.49
2023-01-08T22:08:36.779Z,101164.38
2023-01-08T22:09:40.997Z,101171.39
2023-01-08T22:10:45.247Z,101167.88
2023-01-08T22:11:49.312Z,101167.88
2023-01-08T22:12:54.092Z,101149.63
2023-01-08T22:13:58.928Z,101152.23
2023-01-08T22:15:03.093Z,101152.23
2023-01-08T22:16:10.895Z,101144.41
2023-01-08T22:17:15.150Z,101148.77
2023-01-08T22:18:19.267Z,101142.66
2023-01-08T22:19:23.330Z,101135.72
2023-01-08T22:20:27.529Z,101136.58
2023-01-08T22:21:31.743Z,101132.25
2023-01-08T22:22:36.205Z,101135.75
2023-01-08T22:23:40.588Z,101137.44
2023-01-08T22:24:46.227Z,101130.51
2023-01-08T22:25:50.374Z,101121.78
2023-01-08T22:26:54.495Z,101130.51
2023-01-08T22:27:58.710Z,101130.51
2023-01-08T22:29:04.559Z,101129.65
2023-01-08T22:30:09.949Z,101131.36
2023-01-08T22:31:17.174Z,101137.44
2023-01-08T22:32:21.561Z,101138.33
2023-01-08T22:33:25.784Z,101135.72
2023-01-08T22:34:36.106Z,101133.97
2023-01-08T22:35:40.313Z,101133.97
2023-01-08T22:36:45.440Z,101144.38
2023-01-08T22:37:53.457Z,101135.62
2023-01-08T22:38:59.114Z,101136.48
2023-01-08T22:40:04.917Z,101123.43
2023-01-08T22:41:20.828Z,101129.47
2023-01-08T22:42:28.132Z,101125.15
2023-01-08T22:43:32.311Z,101127.80
2023-01-08T22:44:36.520Z,101127.80
2023-01-08T22:45:42.303Z,101137.37
2023-01-08T22:46:46.428Z,101139.09
2023-01-08T22:47:50.669Z,101126.90
2023-01-08T22:48:54.983Z,101130.33
2023-01-08T22:49:59.056Z,101130.33
2023-01-08T22:51:05.688Z,101116.39
2023-01-08T22:52:09.662Z,101119.00
2023-01-08T22:53:13.742Z,101116.39
2023-01-08T22:54:17.941Z,101118.14
2023-01-08T22:55:22.142Z,101116.42
2023-01-08T22:56:30.631Z,101100.77
2023-01-08T22:57:43.068Z,101098.13
2023-01-08T22:59:13.471Z,101098.13
2023-01-08T23:00:18.651Z,101092.01
2023-01-08T23:01:27.371Z,101092.01
2023-01-08T23:02:31.841Z,101093.76
2023-01-08T23:03:35.968Z,101085.97
2023-01-08T23:04:40.213Z,101091.15
2023-01-08T23:05:44.452Z,101091.15
2023-01-08T23:06:49.078Z,101099.84
2023-01-08T23:07:53.264Z,101091.15
2023-01-08T23:08:59.348Z,101090.22
2023-01-08T23:10:03.431Z,101095.44
2023-01-08T23:11:08.821Z,101090.22
2023-01-08T23:12:14.042Z,101079.78
2023-01-08T23:13:18.087Z,101079.78
2023-01-08T23:14:22.201Z,101089.32
2023-01-08T23:15:26.617Z,101098.86
2023-01-08T23:16:31.592Z,101096.25
2023-01-08T23:17:44.575Z,101096.25
2023-01-08T23:18:42.521Z,101096.25
2023-01-08T23:19:46.763Z,101095.39
2023-01-08T23:20:51.228Z,101090.13
2023-01-08T23:21:55.361Z,101089.28
2023-01-08T23:22:59.524Z,101082.34
2023-01-08T23:24:03.653Z,101082.34
2023-01-08T23:25:08.259Z,101090.17
2023-01-08T23:26:18.357Z,101090.17
2023-01-08T23:27:22.321Z,101099.67
2023-01-08T23:28:26.388Z,101087.48
2023-01-08T23:29:30.431Z,101093.55
2023-01-08T23:30:34.752Z,101079.61
2023-01-08T23:31:40.982Z,101088.30
2023-01-08T23:32:53.619Z,101086.58
2023-01-08T23:33:58.066Z,101078.75
2023-01-08T23:35:05.569Z,101078.75
2023-01-08T23:36:10.510Z,101068.31
2023-01-08T23:37:16.521Z,101063.09
2023-01-08T23:38:29.153Z,101063.05
2023-01-08T23:39:30.218Z,101063.91
2023-01-08T23:40:40.987Z,101070.84
2023-01-08T23:41:56.761Z,101065.61
2023-01-08T23:43:01.091Z,101057.78
2023-01-08T23:44:11.092Z,101067.33
2023-01-08T23:45:16.778Z,101069.93
2023-01-08T23:46:29.924Z,101068.14
2023-01-08T23:47:34.156Z,101064.62
2023-01-08T23:48:39.723Z,101068.13
2023-01-08T23:49:51.382Z,101065.53
2023-01-08T23:51:01.985Z,101063.77
2023-01-08T23:52:06.245Z,101059.41
2023-01-08T23:53:16.644Z,101069.84
2023-01-08T23:54:51.409Z,101067.23
2023-01-08T23:55:56.674Z,101077.68
2023-01-08T23:57:02.700Z,101077.68
2023-01-08T23:58:06.965Z,101073.31
2023-01-08T23:59:12.247Z,101065.52
